createdAt,value
2023-05-21T00:00:11.951Z,5.38
2023-05-21T00:02:59.074Z,5.22
2023-05-21T00:08:30.582Z,5.22
2023-05-21T00:11:15.770Z,4.85
2023-05-21T00:14:00.926Z,4.72
2023-05-21T00:16:46.977Z,5.03
2023-05-21T00:19:34.163Z,5.00
2023-05-21T00:22:20.083Z,5.07
2023-05-21T00:25:05.835Z,5.10
2023-05-21T00:27:50.833Z,5.03
2023-05-21T00:30:36.078Z,5.00
2023-05-21T00:33:21.703Z,5.30
2023-05-21T00:36:07.956Z,5.75
2023-05-21T00:38:53.798Z,5.25
2023-05-21T00:41:40.443Z,5.07
2023-05-21T00:44:26.950Z,5.43
2023-05-21T00:47:13.799Z,5.10
2023-05-21T00:49:59.238Z,4.45
2023-05-21T00:52:46.154Z,5.47
2023-05-21T00:58:17.791Z,4.57
2023-05-21T01:01:03.799Z,4.40
2023-05-21T01:03:49.192Z,5.10
2023-05-21T01:06:35.057Z,4.60
2023-05-21T01:09:20.345Z,5.28
2023-05-21T01:12:06.448Z,5.50
2023-05-21T01:14:51.946Z,4.82
2023-05-21T01:17:37.098Z,4.53
2023-05-21T01:20:24.147Z,4.43
2023-05-21T01:23:08.793Z,4.93
2023-05-21T01:25:54.055Z,4.72
2023-05-21T01:28:39.368Z,4.72
2023-05-21T01:31:30.438Z,3.90
2023-05-21T01:34:19.397Z,4.60
2023-05-21T01:37:27.051Z,4.78
2023-05-21T01:40:25.954Z,4.35
2023-05-21T01:43:11.607Z,3.70
2023-05-21T01:45:57.392Z,4.07
2023-05-21T01:48:43.757Z,4.00
2023-05-21T01:51:28.987Z,4.30
2023-05-21T01:54:14.415Z,4.70
2023-05-21T01:56:59.992Z,4.30
2023-05-21T01:59:45.524Z,4.72
2023-05-21T02:02:30.572Z,4.05
2023-05-21T02:05:16.221Z,4.10
2023-05-21T02:08:01.363Z,4.47
2023-05-21T02:10:46.169Z,4.30
2023-05-21T02:13:32.619Z,3.83
2023-05-21T02:16:18.099Z,4.53
2023-05-21T02:19:05.038Z,4.35
2023-05-21T02:21:50.243Z,4.03
2023-05-21T02:24:34.968Z,3.58
2023-05-21T02:27:19.926Z,3.58
2023-05-21T02:30:07.104Z,3.83
2023-05-21T02:32:52.189Z,4.13
2023-05-21T02:35:37.302Z,4.28
2023-05-21T02:38:23.069Z,3.85
2023-05-21T02:41:08.598Z,4.05
2023-05-21T02:43:53.714Z,4.00
2023-05-21T02:46:38.644Z,4.45
2023-05-21T02:49:23.856Z,4.22
2023-05-21T02:52:08.779Z,4.35
2023-05-21T02:54:53.906Z,4.75
2023-05-21T02:57:38.749Z,4.10
2023-05-21T03:00:23.561Z,3.88
2023-05-21T03:03:09.228Z,4.15
2023-05-21T03:05:54.851Z,3.83
2023-05-21T03:08:39.912Z,4.07
2023-05-21T03:11:24.755Z,4.50
2023-05-21T03:14:09.930Z,4.15
2023-05-21T03:16:54.962Z,3.72
2023-05-21T03:19:42.040Z,4.15
2023-05-21T03:22:27.060Z,3.65
2023-05-21T03:25:13.657Z,4.40
2023-05-21T03:27:59.026Z,4.32
2023-05-21T03:30:49.472Z,3.80
2023-05-21T03:33:34.431Z,4.30
2023-05-21T03:36:20.056Z,4.20
2023-05-21T03:39:05.693Z,4.10
2023-05-21T03:41:51.063Z,4.13
2023-05-21T03:44:36.628Z,4.63
2023-05-21T03:47:21.520Z,4.45
2023-05-21T03:50:08.524Z,4.70
2023-05-21T03:52:53.724Z,4.50
2023-05-21T03:55:39.253Z,4.43
2023-05-21T03:58:24.649Z,5.20
2023-05-21T04:01:10.617Z,4.45
2023-05-21T04:03:55.958Z,4.97
2023-05-21T04:06:42.807Z,4.53
2023-05-21T04:09:27.983Z,5.20
2023-05-21T04:12:13.051Z,6.03
2023-05-21T04:14:58.136Z,5.88
2023-05-21T04:17:43.401Z,5.82
2023-05-21T04:20:28.049Z,6.03
2023-05-21T04:23:12.885Z,4.85
2023-05-21T04:25:57.802Z,5.53
2023-05-21T04:28:42.992Z,6.43
2023-05-21T04:31:28.033Z,6.90
2023-05-21T04:34:13.567Z,6.50
2023-05-21T04:36:58.635Z,6.97
2023-05-21T04:39:44.709Z,6.82
2023-05-21T04:42:30.338Z,6.93
2023-05-21T04:45:15.567Z,5.78
2023-05-21T04:48:00.461Z,7.65
2023-05-21T04:50:46.863Z,6.78
2023-05-21T04:53:31.538Z,8.32
2023-05-21T04:56:20.245Z,6.18
2023-05-21T04:59:06.628Z,6.30
2023-05-21T05:01:51.691Z,7.47
2023-05-21T05:04:38.144Z,7.20
2023-05-21T05:07:23.676Z,8.05
2023-05-21T05:10:09.270Z,7.38
2023-05-21T05:12:54.768Z,8.18
2023-05-21T05:15:39.696Z,8.07
2023-05-21T05:18:24.559Z,8.07
2023-05-21T05:21:09.637Z,8.02
2023-05-21T05:23:54.757Z,8.25
2023-05-21T05:26:40.116Z,7.85
2023-05-21T05:29:24.892Z,8.60
2023-05-21T05:32:10.206Z,8.48
2023-05-21T05:34:55.413Z,9.27
2023-05-21T05:37:40.937Z,10.20
2023-05-21T05:40:25.992Z,10.25
2023-05-21T05:43:11.147Z,10.93
2023-05-21T05:45:57.029Z,9.90
2023-05-21T05:48:41.755Z,11.35
2023-05-21T05:51:27.008Z,10.52
2023-05-21T05:54:11.881Z,10.70
2023-05-21T05:56:56.674Z,11.73
2023-05-21T05:59:41.837Z,11.90
2023-05-21T06:02:27.058Z,11.13
2023-05-21T06:05:12.080Z,12.98
2023-05-21T06:07:56.861Z,10.80
2023-05-21T06:10:42.152Z,11.77
2023-05-21T06:13:27.071Z,12.60
2023-05-21T06:16:13.000Z,11.52
2023-05-21T06:18:58.053Z,12.35
2023-05-21T06:21:43.393Z,13.10
2023-05-21T06:24:28.637Z,12.75
2023-05-21T06:27:13.636Z,12.98
2023-05-21T06:29:58.572Z,13.05
2023-05-21T06:32:44.159Z,12.57
2023-05-21T06:35:29.235Z,11.77
2023-05-21T06:38:14.000Z,12.02
2023-05-21T06:40:58.978Z,12.27
2023-05-21T06:43:44.088Z,13.30
2023-05-21T06:46:29.055Z,13.38
2023-05-21T06:49:14.917Z,11.95
2023-05-21T06:51:59.720Z,12.95
2023-05-21T06:54:44.941Z,12.90
2023-05-21T06:57:29.684Z,13.45
2023-05-21T07:00:14.896Z,12.88
2023-05-21T07:03:00.384Z,13.50
2023-05-21T07:05:45.184Z,12.15
2023-05-21T07:08:30.400Z,13.27
2023-05-21T07:11:15.912Z,12.88
2023-05-21T07:14:01.699Z,13.55
2023-05-21T07:16:47.421Z,13.63
2023-05-21T07:19:32.797Z,12.88
2023-05-21T07:22:18.275Z,11.38
2023-05-21T07:25:03.260Z,12.40
2023-05-21T07:27:48.495Z,12.15
2023-05-21T07:30:33.220Z,11.55
2023-05-21T07:33:20.549Z,12.68
2023-05-21T07:36:06.211Z,12.38
2023-05-21T07:38:51.580Z,11.38
2023-05-21T07:41:37.698Z,12.23
2023-05-21T07:44:22.782Z,12.55
2023-05-21T07:47:08.148Z,12.30
2023-05-21T07:49:53.077Z,12.13
2023-05-21T07:52:38.250Z,11.95
2023-05-21T07:55:23.103Z,12.30
2023-05-21T07:58:08.001Z,12.55
2023-05-21T08:00:53.163Z,12.27
2023-05-21T08:03:38.207Z,12.25
2023-05-21T08:06:24.264Z,12.60
2023-05-21T08:09:09.823Z,11.68
2023-05-21T08:11:54.713Z,11.32
2023-05-21T08:14:41.427Z,11.85
2023-05-21T08:17:28.326Z,11.98
2023-05-21T08:20:15.714Z,11.30
2023-05-21T08:23:01.127Z,11.15
2023-05-21T08:25:46.242Z,11.10
2023-05-21T08:28:32.337Z,12.05
2023-05-21T08:31:21.087Z,12.40
2023-05-21T08:34:05.863Z,10.88
2023-05-21T08:36:51.341Z,12.80
2023-05-21T08:39:36.501Z,11.70
2023-05-21T08:42:42.724Z,12.23
2023-05-21T08:45:37.543Z,11.70
2023-05-21T08:48:24.865Z,11.95
2023-05-21T08:51:09.800Z,12.75
2023-05-21T08:53:55.935Z,11.57
2023-05-21T08:56:49.185Z,12.73
2023-05-21T08:59:36.854Z,12.45
2023-05-21T09:02:21.993Z,12.50
2023-05-21T09:05:09.585Z,12.48
2023-05-21T09:08:14.223Z,13.75
2023-05-21T09:11:02.290Z,11.70
2023-05-21T09:13:48.486Z,13.13
2023-05-21T09:16:33.983Z,12.95
2023-05-21T09:19:22.353Z,12.68
2023-05-21T09:22:07.485Z,12.40
2023-05-21T09:24:52.268Z,13.68
2023-05-21T09:27:37.819Z,12.18
2023-05-21T09:30:25.477Z,12.75
2023-05-21T09:33:12.041Z,12.32
2023-05-21T09:35:57.968Z,13.07
2023-05-21T09:38:44.926Z,12.77
2023-05-21T09:41:34.895Z,13.23
2023-05-21T09:44:20.036Z,12.15
2023-05-21T09:47:05.881Z,14.85
2023-05-21T09:49:50.889Z,12.50
2023-05-21T09:52:41.994Z,12.52
2023-05-21T09:55:29.920Z,13.07
2023-05-21T09:58:15.153Z,14.27
2023-05-21T10:01:00.545Z,13.77
2023-05-21T10:03:50.761Z,12.27
2023-05-21T10:06:41.755Z,13.48
2023-05-21T10:09:28.888Z,12.82
2023-05-21T10:12:15.274Z,12.05
2023-05-21T10:15:03.392Z,13.43
2023-05-21T10:17:50.283Z,13.23
2023-05-21T10:20:36.141Z,13.43
2023-05-21T10:23:24.371Z,12.65
2023-05-21T10:26:10.646Z,12.70
2023-05-21T10:28:57.127Z,11.80
2023-05-21T10:31:46.725Z,12.75
2023-05-21T10:34:32.871Z,12.57
2023-05-21T10:37:18.238Z,12.93
2023-05-21T10:40:04.428Z,12.98
2023-05-21T10:43:11.081Z,12.95
2023-05-21T10:46:12.487Z,11.55
2023-05-21T10:49:12.336Z,12.73
2023-05-21T10:52:06.311Z,13.15
2023-05-21T10:55:20.274Z,12.90
2023-05-21T10:58:30.844Z,13.43
2023-05-21T11:01:19.148Z,12.82
2023-05-21T11:04:06.429Z,12.30
2023-05-21T11:06:52.036Z,13.50
2023-05-21T11:09:37.962Z,13.93
2023-05-21T11:12:23.551Z,14.20
2023-05-21T11:15:09.191Z,12.32
2023-05-21T11:17:56.917Z,13.60
2023-05-21T11:20:50.417Z,13.18
2023-05-21T11:23:50.486Z,14.85
2023-05-21T11:26:48.283Z,13.55
2023-05-21T11:29:40.498Z,13.65
2023-05-21T11:32:25.412Z,14.90
2023-05-21T11:35:13.971Z,13.45
2023-05-21T11:37:59.390Z,13.32
2023-05-21T11:40:55.651Z,13.65
2023-05-21T11:43:40.830Z,14.85
2023-05-21T11:46:25.893Z,12.93
2023-05-21T11:49:12.618Z,13.10
2023-05-21T11:54:48.276Z,13.73
2023-05-21T11:57:33.538Z,14.32
2023-05-21T12:00:18.445Z,15.05
2023-05-21T12:03:06.763Z,13.07
2023-05-21T12:05:52.337Z,13.20
2023-05-21T12:08:38.261Z,14.40
2023-05-21T12:16:57.910Z,13.77
2023-05-21T12:19:43.530Z,14.15
2023-05-21T12:22:30.644Z,14.63
2023-05-21T12:25:19.770Z,13.60
2023-05-21T12:28:06.145Z,14.38
2023-05-21T12:30:51.402Z,13.77
2023-05-21T12:33:36.332Z,14.13
2023-05-21T12:36:34.277Z,13.75
2023-05-21T12:39:22.005Z,13.90
2023-05-21T12:42:07.294Z,14.48
2023-05-21T12:44:52.794Z,13.68
2023-05-21T12:47:41.588Z,13.20
2023-05-21T12:50:26.999Z,13.48
2023-05-21T12:53:12.174Z,12.70
2023-05-21T12:56:10.647Z,12.85
2023-05-21T12:58:56.773Z,13.38
2023-05-21T13:01:41.998Z,13.30
2023-05-21T13:04:28.280Z,13.63
2023-05-21T13:07:15.931Z,13.18
2023-05-21T13:10:02.445Z,13.55
2023-05-21T13:12:47.575Z,12.82
2023-05-21T13:15:33.945Z,13.85
2023-05-21T13:18:20.808Z,13.20
2023-05-21T13:21:06.117Z,12.43
2023-05-21T13:23:51.356Z,13.52
2023-05-21T13:26:36.635Z,12.05
2023-05-21T13:29:21.476Z,12.90
2023-05-21T13:32:07.689Z,13.40
2023-05-21T13:37:42.134Z,12.07
2023-05-21T13:40:27.401Z,11.52
2023-05-21T13:43:12.292Z,12.82
2023-05-21T13:45:57.510Z,13.57
2023-05-21T13:48:43.276Z,11.35
2023-05-21T13:51:38.725Z,12.32
2023-05-21T13:54:24.488Z,11.77
2023-05-21T13:57:10.683Z,12.00
2023-05-21T13:59:58.835Z,12.02
2023-05-21T14:02:44.388Z,10.13
2023-05-21T14:05:29.447Z,12.45
2023-05-21T14:08:16.750Z,12.35
2023-05-21T14:11:04.089Z,12.13
2023-05-21T14:13:49.887Z,13.52
2023-05-21T14:16:35.230Z,11.82
2023-05-21T14:19:21.692Z,13.25
2023-05-21T14:24:52.720Z,11.57
2023-05-21T14:27:38.127Z,13.55
2023-05-21T14:30:23.212Z,12.57
2023-05-21T14:33:08.325Z,12.15
2023-05-21T14:35:53.420Z,10.68
2023-05-21T14:38:38.439Z,11.98
2023-05-21T14:41:27.775Z,11.65
2023-05-21T14:44:13.002Z,10.80
2023-05-21T14:46:58.431Z,11.95
2023-05-21T14:49:43.734Z,10.73
2023-05-21T14:52:28.689Z,12.38
2023-05-21T14:55:16.386Z,11.57
2023-05-21T14:58:01.989Z,12.23
2023-05-21T15:00:46.843Z,11.02
2023-05-21T15:03:32.505Z,10.45
2023-05-21T15:06:17.819Z,12.07
2023-05-21T15:09:02.951Z,10.73
2023-05-21T15:11:52.743Z,11.65
2023-05-21T15:14:38.070Z,11.07
2023-05-21T15:17:22.946Z,10.70
2023-05-21T15:20:09.304Z,10.55
2023-05-21T15:23:05.064Z,10.35
2023-05-21T15:25:59.323Z,10.10
2023-05-21T15:28:44.762Z,9.00
2023-05-21T15:31:31.339Z,9.88
2023-05-21T15:34:18.306Z,9.85
2023-05-21T15:37:04.293Z,9.77
2023-05-21T15:39:49.637Z,11.02
2023-05-21T15:42:34.927Z,11.13
2023-05-21T15:45:21.315Z,9.57
2023-05-21T15:48:06.948Z,10.45
2023-05-21T15:50:51.890Z,10.70
2023-05-21T15:53:36.777Z,10.52
2023-05-21T15:56:22.808Z,9.32
2023-05-21T15:59:08.322Z,10.77
2023-05-21T16:01:54.630Z,11.27
2023-05-21T16:04:39.540Z,11.25
2023-05-21T16:07:24.635Z,10.77
2023-05-21T16:10:10.529Z,11.15
2023-05-21T16:12:55.410Z,11.35
2023-05-21T16:15:40.597Z,11.38
2023-05-21T16:18:25.538Z,10.25
2023-05-21T16:21:10.654Z,10.80
2023-05-21T16:23:56.696Z,11.70
2023-05-21T16:26:41.635Z,10.75
2023-05-21T16:29:26.971Z,11.60
2023-05-21T16:32:13.764Z,10.25
2023-05-21T16:34:58.988Z,11.05
2023-05-21T16:37:47.376Z,12.35
2023-05-21T16:40:32.561Z,10.75
2023-05-21T16:43:17.470Z,10.30
2023-05-21T16:46:05.261Z,10.60
2023-05-21T16:48:50.136Z,10.13
2023-05-21T16:51:34.998Z,10.98
2023-05-21T16:54:20.108Z,10.10
2023-05-21T16:57:05.409Z,10.18
2023-05-21T16:59:52.879Z,10.02
2023-05-21T17:02:38.272Z,11.85
2023-05-21T17:05:24.061Z,11.35
2023-05-21T17:08:09.348Z,11.40
2023-05-21T17:10:55.362Z,11.65
2023-05-21T17:13:40.441Z,11.35
2023-05-21T17:16:25.495Z,11.60
2023-05-21T17:19:10.767Z,11.82
2023-05-21T17:21:56.234Z,10.10
2023-05-21T17:24:41.241Z,10.57
2023-05-21T17:27:27.051Z,10.55
2023-05-21T17:30:12.393Z,8.07
2023-05-21T17:32:59.188Z,9.20
2023-05-21T17:35:47.298Z,9.38
2023-05-21T17:38:34.582Z,9.57
2023-05-21T17:41:20.106Z,8.90
2023-05-21T17:44:05.382Z,8.45
2023-05-21T17:46:51.749Z,8.02
2023-05-21T17:49:36.738Z,7.43
2023-05-21T17:52:21.596Z,7.82
2023-05-21T17:55:08.621Z,7.90
2023-05-21T17:57:53.357Z,8.43
2023-05-21T18:00:38.646Z,20.60
2023-05-21T18:03:23.925Z,8.98
2023-05-21T18:06:10.799Z,8.07
2023-05-21T18:08:56.007Z,8.85
2023-05-21T18:11:42.782Z,9.02
2023-05-21T18:14:28.008Z,8.30
2023-05-21T18:17:13.512Z,8.38
2023-05-21T18:19:58.772Z,8.07
2023-05-21T18:22:44.878Z,7.97
2023-05-21T18:25:30.608Z,8.13
2023-05-21T18:28:16.284Z,7.60
2023-05-21T18:31:03.769Z,6.65
2023-05-21T18:33:49.097Z,7.50
2023-05-21T18:36:39.828Z,7.07
2023-05-21T18:39:24.949Z,8.20
2023-05-21T18:42:13.562Z,7.35
2023-05-21T18:45:07.428Z,7.72
2023-05-21T18:47:52.381Z,7.55
2023-05-21T18:50:38.232Z,7.30
2023-05-21T18:53:23.239Z,7.75
2023-05-21T18:56:10.494Z,7.32
2023-05-21T18:58:55.785Z,7.90
2023-05-21T19:01:40.709Z,7.75
2023-05-21T19:04:28.720Z,6.38
2023-05-21T19:07:16.728Z,6.97
2023-05-21T19:10:04.475Z,7.50
2023-05-21T19:12:49.800Z,7.72
2023-05-21T19:15:35.360Z,7.85
2023-05-21T19:18:22.249Z,7.00
2023-05-21T19:21:11.054Z,8.05
2023-05-21T19:23:56.375Z,7.75
2023-05-21T19:26:41.474Z,8.30
2023-05-21T19:29:28.798Z,7.72
2023-05-21T19:32:19.034Z,7.53
2023-05-21T19:35:06.372Z,8.05
2023-05-21T19:37:52.068Z,8.15
2023-05-21T19:40:38.139Z,8.45
2023-05-21T19:43:24.499Z,8.85
2023-05-21T19:46:10.776Z,7.93
2023-05-21T19:48:57.554Z,7.97
2023-05-21T19:51:42.607Z,7.85
2023-05-21T19:54:28.532Z,7.45
2023-05-21T19:57:13.855Z,7.10
2023-05-21T20:00:02.402Z,7.25
2023-05-21T20:02:47.554Z,6.97
2023-05-21T20:05:32.725Z,6.90
2023-05-21T20:08:24.955Z,7.13
2023-05-21T20:11:10.827Z,7.43
2023-05-21T20:13:58.309Z,7.63
2023-05-21T20:16:46.902Z,7.47
2023-05-21T20:19:32.735Z,7.20
2023-05-21T20:22:20.802Z,7.25
2023-05-21T20:25:09.965Z,7.38
2023-05-21T20:27:56.877Z,6.75
2023-05-21T20:30:59.035Z,6.80
2023-05-21T20:33:44.120Z,6.40
2023-05-21T20:36:30.390Z,6.68
2023-05-21T20:39:16.061Z,7.28
2023-05-21T20:42:02.673Z,6.72
2023-05-21T20:44:51.788Z,6.40
2023-05-21T20:47:38.351Z,7.38
2023-05-21T20:50:25.953Z,6.30
2023-05-21T20:53:15.604Z,6.93
2023-05-21T20:56:01.383Z,6.70
2023-05-21T20:58:48.603Z,6.47
2023-05-21T21:01:33.925Z,6.55
2023-05-21T21:04:18.892Z,6.85
2023-05-21T21:07:07.767Z,6.30
2023-05-21T21:09:53.636Z,6.25
2023-05-21T21:12:38.356Z,6.30
2023-05-21T21:15:25.414Z,6.03
2023-05-21T21:18:12.485Z,6.28
2023-05-21T21:20:57.652Z,5.90
2023-05-21T21:23:42.602Z,5.93
2023-05-21T21:26:28.839Z,6.95
2023-05-21T21:29:13.930Z,6.53
2023-05-21T21:31:59.058Z,5.75
2023-05-21T21:34:44.179Z,6.47
2023-05-21T21:37:29.417Z,6.88
2023-05-21T21:40:14.691Z,5.65
2023-05-21T21:42:59.665Z,5.90
2023-05-21T21:45:44.721Z,5.90
2023-05-21T21:48:29.883Z,6.25
2023-05-21T21:51:15.492Z,6.35
2023-05-21T21:54:00.680Z,6.70
2023-05-21T21:56:45.662Z,6.15
2023-05-21T21:59:30.589Z,6.25
2023-05-21T22:02:18.301Z,6.07
2023-05-21T22:05:03.529Z,5.40
2023-05-21T22:07:49.250Z,5.80
2023-05-21T22:10:37.852Z,5.85
2023-05-21T22:13:24.466Z,6.05
2023-05-21T22:16:11.592Z,6.10
2023-05-21T22:18:57.886Z,6.00
2023-05-21T22:21:43.163Z,5.82
2023-05-21T22:24:32.808Z,5.97
2023-05-21T22:27:18.491Z,5.20
2023-05-21T22:30:04.582Z,5.78
2023-05-21T22:32:49.714Z,5.80
2023-05-21T22:35:35.140Z,6.15
2023-05-21T22:38:20.721Z,5.95
2023-05-21T22:41:05.804Z,6.18
2023-05-21T22:43:52.113Z,5.72
2023-05-21T22:46:38.492Z,5.90
2023-05-21T22:49:23.416Z,4.90
2023-05-21T22:52:09.198Z,6.28
2023-05-21T22:54:54.140Z,5.93
2023-05-21T22:57:40.763Z,5.95
2023-05-21T23:00:26.033Z,6.10
2023-05-21T23:03:11.432Z,5.82
2023-05-21T23:05:56.401Z,6.43
2023-05-21T23:08:41.773Z,5.88
2023-05-21T23:11:26.569Z,5.65
2023-05-21T23:14:11.519Z,5.80
2023-05-21T23:17:01.614Z,6.03
2023-05-21T23:19:50.174Z,6.07
2023-05-21T23:22:35.810Z,6.45
2023-05-21T23:25:20.796Z,5.75
2023-05-21T23:28:06.060Z,5.60
2023-05-21T23:30:51.513Z,5.60
2023-05-21T23:33:36.859Z,5.68
2023-05-21T23:36:21.555Z,5.68
2023-05-21T23:39:06.494Z,6.05
2023-05-21T23:41:52.269Z,5.47
2023-05-21T23:44:37.864Z,5.20
2023-05-21T23:47:23.211Z,5.10
2023-05-21T23:50:08.648Z,5.85
2023-05-21T23:52:53.740Z,5.70
2023-05-21T23:55:39.178Z,5.20
2023-05-21T23:58:24.424Z,5.82
